• Join FlightAware (Why Join?)
  • Login
  • US Flag 
06:00PM EST


 

Airport Tracker/Info


-or-


 

Live Flight TrackerFlight Track Log ✈ ASQ4633 ✈ 29-Apr-2013 ✈ KEWR - KBTV

Flight Track Log - Related Links

Times and Time Zones

All times are in EDT time to prevent confusion due to time zone crossing. See the ASQ4633 flight status page for this flight to view local times or setup timezone preferences in your user account.

Time Position Orientation Groundspeed Altitude Reporting Facility
EDT Latitude Longitude Course Direction KTS MPH feet Rate Location/Type
03:56PM 40.6333 -74.2167 40° Northeast 194 223 3,100  Level New York TRACON
03:57PM 40.6833 -74.2333 346° North 255 293 5,600 2,460 Climbing New York TRACON
03:58PM 40.7333 -74.1667 45° Northeast 257 296 8,100 2,100 Climbing New York TRACON
03:59PM 40.7500 -74.0833 75° East 279 321 9,900 960 Climbing New York TRACON
04:00PM 40.8000 -73.9667 60° Northeast 345 397 10,100 120 Climbing New York TRACON
04:01PM 41.0752 -73.7321 40° Northeast  Level FlightAware Approximate
04:01PM 40.8667 -73.8667 49° Northeast 369 425 10,200  Level New York TRACON
04:02PM 40.9500 -73.7833 37° Northeast 367 422 12,000 1,800 Climbing New York TRACON
04:03PM 41.0333 -73.7167 31° Northeast 358 412 13,800 1,620 Climbing New York TRACON
04:04PM 41.1167 -73.6333 37° Northeast 366 421 15,300 1,200 Climbing New York TRACON
04:05PM 41.2428 -73.5250 33° Northeast 395 455 17,000 600 Climbing Boston Center
04:06PM 41.3394 -73.4408 33° Northeast 379 436 17,000 420 Level Boston Center
04:07PM 41.4192 -73.3703 34° Northeast 379 436 17,900 960 Climbing Boston Center
04:08PM 41.5053 -73.2828 37° Northeast 379 436 19,000 1,020 Climbing Boston Center
04:09PM 41.5811 -73.1783 46° Northeast 384 442 20,000 1,020 Climbing Boston Center
04:10PM 41.6794 -73.1183 24° Northeast 384 442 21,100 1,020 Climbing Boston Center
04:11PM 41.7939 -73.1361 353° North 379 436 22,100 960 Climbing Boston Center
04:12PM 41.9042 -73.1542 353° North 379 436 23,100 960 Climbing Boston Center
04:13PM 42.0144 -73.1750 352° North 391 450 24,100 900 Climbing Boston Center
04:14PM 42.1269 -73.1847 356° North 397 457 25,000 420 Climbing Boston Center
04:15PM 42.2458 -73.1833 360° North 408 470 25,000  Level Boston Center
04:16PM 42.3689 -73.1764 North 423 487 25,000  Level Boston Center
04:17PM 42.4919 -73.1694 North 429 494 25,000  Level Boston Center
04:18PM 42.6314 -73.1822 356° North 441 507 25,000  Level Boston Center
04:19PM 42.7544 -73.1836 360° North 441 507 25,000  Level Boston Center
04:20PM 42.8753 -73.1853 359° North 441 507 25,000  Level Boston Center
04:21PM 42.9961 -73.1839 360° North 436 502 25,000  Level Boston Center
04:23PM 43.1378 -73.1828 360° North 430 495 25,000  Level Boston Center
04:24PM 43.2567 -73.1842 360° North 425 489 25,000 -660 Level Boston Center
04:25PM 43.3775 -73.1828 360° North 425 489 23,700 -2,040 Descending Boston Center
04:26PM 43.4839 -73.1811 North 419 482 21,000 -2,940 Descending Boston Center
04:27PM 43.5983 -73.1797 North 419 482 17,900 -3,000 Descending Boston Center
04:28PM 43.7089 -73.1839 358° North 406 467 15,100 -2,700 Descending Boston Center
04:29PM 43.8150 -73.1825 North 384 442 12,600 -2,100 Descending Boston Center
04:30PM 43.9192 -73.1836 360° North 378 435 11,000 -840 Descending Boston Center
04:31PM 44.0236 -73.1822 North 372 428 11,000 -60 Level Boston Center
04:32PM 44.1233 -73.1950 355° North 372 428 10,900 -660 Descending Boston Center
04:33PM 44.2003 -73.2392 338° Northwest 315 362 9,700 -1,740 Descending Boston Center
04:34PM 44.2811 -73.2839 338° Northwest 292 336 7,500 -1,500 Descending Boston Center
04:35PM 44.3539 -73.3256 338° Northwest 281 323 6,800 -780 Descending Boston Center
04:36PM 44.4181 -73.3644 337° Northwest 263 303 6,000 -840 Descending Boston Center
04:37PM 44.4742 -73.3972 337° Northwest 252 290 5,200 -1,020 Descending Boston Center
04:38PM 44.5406 -73.4069 354° North 219 252 4,000 -1,140 Descending Boston Center
04:39PM 44.5517 -73.3314 78° East 144 166 3,000 -900 Descending Boston Center
04:40PM 44.5397 -73.2642 104° East 148 170 2,200 -840 Descending Boston Center
04:41PM 44.5150 -73.2231 130° Southeast 148 170 1,400 -720 Descending Boston Center
04:42PM 44.4922 -73.1850 130° Southeast 131 151 800 -600 Descending Boston Center